Time;durP1;ratioP1;P1;durP2;ratioP2;P2;SDS_P1;SDS_P2;PMS_P1;PMS_P2;Temp;Humidity;BMP_temperature;BMP_pressure;BME280_temperature;BME280_humidity;BME280_pressure;Samples;Min_cycle;Max_cycle;Signal;HPM_P1;HPM_P2
2023/04/13 00:01:10;;;;;;;32.80;16.77;;;;;;;;;;5027962;28;20277;-67
2023/04/13 00:03:37;;;;;;;24.23;15.30;;;;;;;;;;5027822;28;20257;-67
2023/04/13 00:06:09;;;;;;;20.83;13.10;;;;;;;;;;5028141;28;20191;-67
2023/04/13 00:08:36;;;;;;;23.17;13.80;;;;;;;;;;5027640;28;20556;-67
2023/04/13 00:11:04;;;;;;;27.60;15.23;;;;;;;;;;5027856;28;20218;-67
2023/04/13 00:13:36;;;;;;;26.37;15.13;;;;;;;;;;5027525;28;20215;-67
2023/04/13 00:16:04;;;;;;;24.37;15.93;;;;;;;;;;5027479;28;20662;-67
2023/04/13 00:18:31;;;;;;;27.80;15.83;;;;;;;;;;5027453;28;20195;-67
2023/04/13 00:20:58;;;;;;;24.13;14.70;;;;;;;;;;5027984;28;20187;-67
2023/04/13 00:23:28;;;;;;;22.17;14.10;;;;;;;;;;5027524;28;20187;-67
2023/04/13 00:25:55;;;;;;;21.53;14.03;;;;;;;;;;5027609;28;20187;-67
2023/04/13 00:28:23;;;;;;;23.20;13.27;;;;;;;;;;5027526;28;20435;-67
2023/04/13 00:30:50;;;;;;;26.67;14.57;;;;;;;;;;5027121;28;20226;-67
2023/04/13 00:33:17;;;;;;;23.47;13.73;;;;;;;;;;5027855;28;20709;-67
2023/04/13 00:35:44;;;;;;;23.23;15.13;;;;;;;;;;5027373;28;20249;-67
2023/04/13 00:38:10;;;;;;;24.40;15.07;;;;;;;;;;5027289;28;20187;-67
2023/04/13 00:40:38;;;;;;;23.70;13.10;;;;;;;;;;4874145;28;4421466;-67
2023/04/13 00:43:04;;;;;;;21.37;13.27;;;;;;;;;;5010285;28;20500;-68
2023/04/13 00:45:32;;;;;;;22.33;13.43;;;;;;;;;;5027781;28;20253;-67
2023/04/13 00:48:00;;;;;;;23.37;14.70;;;;;;;;;;5011337;28;20191;-67
2023/04/13 00:50:26;;;;;;;22.00;14.13;;;;;;;;;;5027752;28;20187;-67
2023/04/13 00:52:53;;;;;;;25.73;15.40;;;;;;;;;;5010646;28;20187;-67
2023/04/13 00:55:21;;;;;;;24.83;15.63;;;;;;;;;;5027779;28;20222;-67
2023/04/13 00:57:51;;;;;;;24.43;15.40;;;;;;;;;;5028262;28;20231;-67
2023/04/13 01:00:20;;;;;;;25.20;16.17;;;;;;;;;;5028164;28;20610;-67
2023/04/13 01:02:47;;;;;;;25.97;15.27;;;;;;;;;;5028294;28;20195;-66
2023/04/13 01:05:15;;;;;;;24.63;14.77;;;;;;;;;;5009941;28;20202;-67
2023/04/13 01:07:51;;;;;;;21.37;14.10;;;;;;;;;;5010714;28;20188;-67
2023/04/13 01:10:26;;;;;;;22.97;15.27;;;;;;;;;;5009921;28;20218;-67
2023/04/13 01:12:55;;;;;;;30.70;17.30;;;;;;;;;;5010540;28;20211;-67
2023/04/13 01:15:22;;;;;;;26.87;16.60;;;;;;;;;;4993865;28;20230;-67
2023/04/13 01:17:56;;;;;;;27.50;16.97;;;;;;;;;;5010840;28;20257;-67
2023/04/13 01:20:24;;;;;;;20.70;13.00;;;;;;;;;;5027729;28;20539;-67
2023/04/13 01:22:55;;;;;;;23.00;14.33;;;;;;;;;;5010115;28;20203;-67
2023/04/13 01:25:29;;;;;;;26.73;15.53;;;;;;;;;;5010210;28;20274;-67
2023/04/13 01:28:04;;;;;;;23.73;14.87;;;;;;;;;;5028072;28;20658;-67
2023/04/13 01:30:32;;;;;;;22.53;13.70;;;;;;;;;;5009841;28;20195;-67
2023/04/13 01:33:00;;;;;;;21.63;13.97;;;;;;;;;;5028371;28;20179;-68
2023/04/13 01:35:29;;;;;;;22.90;14.83;;;;;;;;;;5010050;28;20548;-67
2023/04/13 01:37:57;;;;;;;21.30;13.10;;;;;;;;;;4994185;28;20196;-67
2023/04/13 01:40:26;;;;;;;22.00;14.37;;;;;;;;;;5012148;28;20587;-67
2023/04/13 02:18:41;;;;;;;19.50;12.23;;;;;;;;;;5046286;28;20440;-65
2023/04/13 02:21:15;;;;;;;19.60;12.70;;;;;;;;;;5016287;28;20278;-64
2023/04/13 02:23:41;;;;;;;24.47;13.93;;;;;;;;;;5033255;28;20195;-64
2023/04/13 02:26:08;;;;;;;21.87;13.77;;;;;;;;;;5015740;28;20783;-65
2023/04/13 02:28:35;;;;;;;22.30;13.53;;;;;;;;;;5015762;28;20430;-64
2023/04/13 02:31:02;;;;;;;22.53;13.17;;;;;;;;;;5015770;28;20973;-64
2023/04/13 02:33:30;;;;;;;19.90;12.63;;;;;;;;;;5033099;28;20195;-64
2023/04/13 02:35:58;;;;;;;21.47;13.33;;;;;;;;;;5032791;28;20722;-64
2023/04/13 02:38:27;;;;;;;26.43;14.27;;;;;;;;;;5015641;28;20434;-64
2023/04/13 02:40:59;;;;;;;25.60;14.80;;;;;;;;;;5015253;28;20472;-65
2023/04/13 02:43:28;;;;;;;24.83;14.80;;;;;;;;;;5012660;28;20968;-64
2023/04/13 02:45:55;;;;;;;23.63;13.93;;;;;;;;;;5012390;28;20215;-66
2023/04/13 02:48:27;;;;;;;22.90;14.13;;;;;;;;;;5012590;28;20537;-66
2023/04/13 02:50:55;;;;;;;21.73;13.73;;;;;;;;;;5012745;28;20207;-66
2023/04/13 02:53:27;;;;;;;23.37;14.93;;;;;;;;;;5012203;28;21082;-66
2023/04/13 02:55:59;;;;;;;21.83;14.93;;;;;;;;;;5012327;28;20996;-66
2023/04/13 02:58:25;;;;;;;22.23;13.33;;;;;;;;;;5012389;28;20446;-65
2023/04/13 03:00:58;;;;;;;23.40;14.87;;;;;;;;;;5029770;28;20530;-66
2023/04/13 03:03:29;;;;;;;25.10;14.63;;;;;;;;;;5011902;28;21115;-66
2023/04/13 03:05:56;;;;;;;25.77;15.33;;;;;;;;;;5012354;28;20442;-66
2023/04/13 03:08:35;;;;;;;27.17;16.00;;;;;;;;;;5012014;28;20477;-65
2023/04/13 03:11:25;;;;;;;23.33;14.77;;;;;;;;;;5011831;28;20207;-66
2023/04/13 03:14:19;;;;;;;24.63;13.17;;;;;;;;;;5029162;28;20219;-66
2023/04/13 03:16:53;;;;;;;24.97;15.07;;;;;;;;;;5011891;28;20438;-65
2023/04/13 03:19:24;;;;;;;26.60;16.17;;;;;;;;;;5011669;28;20941;-66
2023/04/13 03:21:51;;;;;;;22.50;14.53;;;;;;;;;;5029747;28;20434;-66
2023/04/13 03:24:22;;;;;;;25.10;14.53;;;;;;;;;;5012003;28;20438;-66
2023/04/13 03:26:49;;;;;;;24.17;15.50;;;;;;;;;;5029272;28;20435;-66
2023/04/13 03:29:25;;;;;;;24.00;15.07;;;;;;;;;;5011372;28;20495;-66
2023/04/13 03:31:51;;;;;;;25.97;14.67;;;;;;;;;;5011304;28;20478;-66
2023/04/13 03:34:18;;;;;;;27.13;15.70;;;;;;;;;;4995510;28;20953;-66
2023/04/13 03:36:47;;;;;;;26.00;16.17;;;;;;;;;;5029182;28;20434;-65
2023/04/13 03:39:17;;;;;;;27.03;16.37;;;;;;;;;;5011578;28;20462;-66
2023/04/13 03:41:43;;;;;;;26.40;16.80;;;;;;;;;;5011284;28;20438;-65
2023/04/13 03:44:11;;;;;;;30.73;18.13;;;;;;;;;;5011164;28;20806;-66
2023/04/13 03:46:38;;;;;;;28.53;17.77;;;;;;;;;;4995573;28;20513;-66
2023/04/13 03:49:17;;;;;;;27.97;17.33;;;;;;;;;;5011437;28;20206;-66
2023/04/13 03:51:44;;;;;;;31.03;18.30;;;;;;;;;;5027594;28;20218;-66
2023/04/13 03:54:12;;;;;;;28.93;17.17;;;;;;;;;;5011683;28;20218;-66
2023/04/13 03:56:39;;;;;;;27.03;16.63;;;;;;;;;;5029197;28;20433;-66
2023/04/13 03:59:07;;;;;;;27.67;15.93;;;;;;;;;;5010977;28;20207;-66
2023/04/13 04:01:36;;;;;;;24.60;15.73;;;;;;;;;;5010565;28;20438;-66
2023/04/13 04:04:03;;;;;;;27.47;16.40;;;;;;;;;;5010597;28;20430;-66
2023/04/13 04:06:31;;;;;;;26.20;16.03;;;;;;;;;;5027587;28;20231;-66
2023/04/13 04:09:09;;;;;;;27.20;16.00;;;;;;;;;;5011209;28;20716;-66
2023/04/13 04:11:43;;;;;;;29.87;16.87;;;;;;;;;;5027082;28;20513;-66
2023/04/13 04:14:13;;;;;;;30.80;16.90;;;;;;;;;;5010519;28;21403;-66
2023/04/13 04:16:48;;;;;;;27.03;16.43;;;;;;;;;;5026998;28;20264;-66
2023/04/13 04:19:17;;;;;;;25.47;15.50;;;;;;;;;;5010869;28;20969;-66
2023/04/13 04:21:45;;;;;;;28.57;17.07;;;;;;;;;;5027060;28;20302;-66
2023/04/13 04:24:22;;;;;;;27.43;16.63;;;;;;;;;;5010799;28;20294;-66
2023/04/13 04:26:54;;;;;;;23.30;15.30;;;;;;;;;;5010754;28;20196;-66
2023/04/13 04:29:32;;;;;;;25.87;16.27;;;;;;;;;;5010396;28;20207;-66
2023/04/13 04:32:22;;;;;;;24.10;15.70;;;;;;;;;;5010558;28;20226;-66
2023/04/13 04:34:51;;;;;;;23.83;15.23;;;;;;;;;;5010634;28;20203;-66
2023/04/13 04:37:24;;;;;;;25.77;15.97;;;;;;;;;;5028236;28;20430;-66
2023/04/13 04:40:14;;;;;;;24.17;15.10;;;;;;;;;;5027584;28;20277;-66
2023/04/13 04:42:42;;;;;;;23.00;15.97;;;;;;;;;;5009826;28;20191;-66
2023/04/13 04:45:27;;;;;;;23.83;15.00;;;;;;;;;;5027999;28;20276;-66
2023/04/13 04:47:56;;;;;;;24.17;15.83;;;;;;;;;;5010723;28;20207;-66
2023/04/13 04:50:25;;;;;;;25.87;15.47;;;;;;;;;;5010284;28;20204;-66
2023/04/13 04:52:59;;;;;;;24.17;15.47;;;;;;;;;;5010058;28;20276;-66
2023/04/13 04:55:27;;;;;;;22.00;14.10;;;;;;;;;;5028223;28;20710;-66
2023/04/13 04:57:55;;;;;;;24.07;15.17;;;;;;;;;;5010075;28;20195;-66
2023/04/13 05:01:00;;;;;;;19.43;13.47;;;;;;;;;;5010407;28;20199;-66
2023/04/13 05:03:28;;;;;;;26.70;16.03;;;;;;;;;;5010189;28;20195;-66
2023/04/13 05:06:06;;;;;;;21.73;13.80;;;;;;;;;;5010649;28;20532;-66
2023/04/13 05:08:33;;;;;;;27.63;17.60;;;;;;;;;;5010092;28;20210;-66
2023/04/13 05:11:00;;;;;;;27.50;17.03;;;;;;;;;;5027780;28;20199;-66
2023/04/13 05:13:27;;;;;;;31.90;17.23;;;;;;;;;;5010227;28;20308;-66
2023/04/13 05:16:29;;;;;;;31.87;20.07;;;;;;;;;;5007689;28;20341;-66
2023/04/13 05:19:07;;;;;;;28.43;17.07;;;;;;;;;;5013990;28;20226;-66
2023/04/13 05:22:01;;;;;;;25.03;15.27;;;;;;;;;;5029390;28;20256;-66
2023/04/13 05:24:34;;;;;;;26.60;16.17;;;;;;;;;;5013959;28;20199;-66
2023/04/13 05:27:08;;;;;;;24.83;14.40;;;;;;;;;;5014346;28;20257;-66
2023/04/13 05:29:36;;;;;;;23.17;14.87;;;;;;;;;;5014039;28;20206;-66
2023/04/13 05:32:03;;;;;;;22.97;14.20;;;;;;;;;;5013715;28;20245;-66
2023/04/13 05:34:32;;;;;;;23.77;15.30;;;;;;;;;;5013908;28;20191;-66
2023/04/13 05:37:19;;;;;;;25.17;14.60;;;;;;;;;;5031142;28;20210;-66
2023/04/13 05:39:47;;;;;;;20.63;14.80;;;;;;;;;;5013623;28;20635;-66
2023/04/13 05:42:17;;;;;;;21.33;13.67;;;;;;;;;;5013898;28;20195;-66
2023/04/13 05:44:44;;;;;;;23.60;14.07;;;;;;;;;;5013821;28;20288;-66
2023/04/13 05:47:12;;;;;;;24.13;14.77;;;;;;;;;;5013360;28;20227;-66
2023/04/13 05:49:42;;;;;;;22.40;14.43;;;;;;;;;;5031231;28;20210;-66
2023/04/13 05:52:09;;;;;;;23.57;14.83;;;;;;;;;;5013234;28;20310;-66
2023/04/13 05:54:42;;;;;;;22.00;14.60;;;;;;;;;;5013370;28;20202;-66
2023/04/13 05:57:09;;;;;;;24.60;14.40;;;;;;;;;;5031406;28;20195;-67
2023/04/13 05:59:40;;;;;;;22.73;15.77;;;;;;;;;;5013292;28;20203;-66
2023/04/13 06:02:08;;;;;;;22.00;15.17;;;;;;;;;;5013208;28;20222;-66
2023/04/13 06:04:34;;;;;;;20.93;14.70;;;;;;;;;;5013473;28;20253;-66
2023/04/13 06:07:01;;;;;;;22.50;14.97;;;;;;;;;;5013131;28;20195;-67
2023/04/13 06:09:28;;;;;;;23.73;15.63;;;;;;;;;;5013389;28;20195;-66
2023/04/13 06:11:56;;;;;;;22.70;15.03;;;;;;;;;;5031158;28;20210;-66
2023/04/13 06:14:24;;;;;;;26.37;16.00;;;;;;;;;;5030601;28;20532;-66
2023/04/13 06:16:51;;;;;;;24.03;15.97;;;;;;;;;;5030763;28;20192;-67
2023/04/13 06:19:18;;;;;;;22.43;14.93;;;;;;;;;;5030809;28;20188;-66
2023/04/13 06:21:45;;;;;;;27.07;15.93;;;;;;;;;;5012976;28;20230;-67
2023/04/13 06:24:12;;;;;;;22.43;14.20;;;;;;;;;;5031074;28;20171;-67
2023/04/13 06:26:39;;;;;;;25.87;15.20;;;;;;;;;;5030384;28;20203;-66
2023/04/13 06:29:06;;;;;;;22.73;15.80;;;;;;;;;;5012700;28;20227;-66
2023/04/13 06:31:42;;;;;;;24.07;15.77;;;;;;;;;;5012355;28;20238;-65
2023/04/13 06:34:14;;;;;;;23.80;15.80;;;;;;;;;;5012794;28;20202;-65
2023/04/13 06:36:42;;;;;;;28.07;17.70;;;;;;;;;;5013027;28;20275;-65
2023/04/13 06:39:12;;;;;;;25.87;16.03;;;;;;;;;;5012655;28;20247;-66
2023/04/13 06:41:44;;;;;;;25.40;15.97;;;;;;;;;;5012970;28;20249;-66
2023/04/13 06:44:40;;;;;;;23.70;14.70;;;;;;;;;;5030221;28;20210;-66
2023/04/13 06:47:07;;;;;;;20.43;14.80;;;;;;;;;;5012463;28;20203;-66
2023/04/13 06:49:35;;;;;;;22.57;15.23;;;;;;;;;;5012655;28;20202;-66
2023/04/13 06:52:03;;;;;;;21.47;14.10;;;;;;;;;;5012338;28;20220;-66
2023/04/13 06:54:30;;;;;;;17.73;12.57;;;;;;;;;;5012449;28;20286;-66
2023/04/13 06:57:04;;;;;;;19.13;13.37;;;;;;;;;;5012722;28;20752;-66
2023/04/13 06:59:30;;;;;;;17.40;12.50;;;;;;;;;;5012174;28;20286;-65
2023/04/13 07:01:57;;;;;;;18.90;13.60;;;;;;;;;;5012791;28;20215;-65
2023/04/13 07:04:24;;;;;;;19.47;13.53;;;;;;;;;;5012250;28;20631;-65
2023/04/13 07:06:56;;;;;;;19.23;13.27;;;;;;;;;;5012564;28;20207;-66
2023/04/13 07:09:23;;;;;;;18.53;13.67;;;;;;;;;;5012361;28;20297;-66
2023/04/13 07:11:49;;;;;;;16.17;13.10;;;;;;;;;;5028767;28;20661;-66
2023/04/13 07:14:16;;;;;;;16.20;12.37;;;;;;;;;;5012022;28;20183;-66
2023/04/13 07:16:43;;;;;;;17.30;13.67;;;;;;;;;;5012019;28;20311;-66
2023/04/13 07:19:12;;;;;;;14.20;12.17;;;;;;;;;;5012313;28;20317;-66
2023/04/13 07:21:39;;;;;;;18.60;12.37;;;;;;;;;;5011917;28;20663;-66
2023/04/13 07:24:07;;;;;;;15.40;11.97;;;;;;;;;;5012424;28;20203;-66
2023/04/13 07:26:38;;;;;;;14.23;11.83;;;;;;;;;;5011674;28;20200;-66
2023/04/13 07:29:12;;;;;;;12.43;10.43;;;;;;;;;;5011560;28;20199;-66
2023/04/13 07:31:45;;;;;;;11.53;9.57;;;;;;;;;;5011816;28;20229;-66
2023/04/13 07:34:12;;;;;;;12.20;10.10;;;;;;;;;;5011716;28;20184;-66
2023/04/13 07:36:43;;;;;;;13.00;10.17;;;;;;;;;;5010801;28;20192;-67
2023/04/13 07:39:15;;;;;;;11.40;9.70;;;;;;;;;;5011359;28;20235;-67
2023/04/13 07:41:46;;;;;;;12.47;9.27;;;;;;;;;;5011693;28;20196;-66
2023/04/13 07:44:19;;;;;;;11.23;8.93;;;;;;;;;;5011400;28;20203;-66
2023/04/13 07:46:46;;;;;;;12.23;9.00;;;;;;;;;;5011511;28;20206;-67
2023/04/13 07:49:22;;;;;;;10.40;9.07;;;;;;;;;;5011171;28;20223;-66
2023/04/13 07:51:51;;;;;;;10.97;9.00;;;;;;;;;;5011367;28;20226;-66
2023/04/13 07:54:18;;;;;;;11.57;9.67;;;;;;;;;;5011806;28;20281;-66
2023/04/13 07:56:46;;;;;;;12.17;9.50;;;;;;;;;;5027411;28;20200;-66
2023/04/13 07:59:14;;;;;;;12.30;9.20;;;;;;;;;;5011096;28;20308;-66
2023/04/13 08:01:44;;;;;;;11.23;9.60;;;;;;;;;;5011028;28;20257;-66
2023/04/13 08:04:11;;;;;;;10.33;8.87;;;;;;;;;;5010894;28;20311;-66
2023/04/13 08:06:40;;;;;;;11.83;9.70;;;;;;;;;;5011109;28;20294;-67
2023/04/13 08:09:07;;;;;;;18.20;11.90;;;;;;;;;;5028905;28;20187;-68
2023/04/13 08:11:33;;;;;;;13.07;10.67;;;;;;;;;;5011017;28;20202;-67
2023/04/13 08:14:05;;;;;;;14.40;10.37;;;;;;;;;;5010516;28;20234;-67
2023/04/13 08:16:36;;;;;;;13.97;11.53;;;;;;;;;;5010855;28;20223;-67
2023/04/13 08:19:07;;;;;;;11.97;10.37;;;;;;;;;;5028408;28;20264;-67
2023/04/13 08:21:39;;;;;;;12.13;9.53;;;;;;;;;;5010688;28;20203;-67
2023/04/13 08:24:06;;;;;;;12.40;9.77;;;;;;;;;;5010888;28;20314;-67
2023/04/13 08:26:33;;;;;;;12.60;9.40;;;;;;;;;;5010861;28;20172;-67
2023/04/13 08:29:00;;;;;;;12.47;8.80;;;;;;;;;;5026701;28;20261;-67
2023/04/13 08:31:28;;;;;;;12.03;9.70;;;;;;;;;;5010620;28;20218;-67
2023/04/13 08:33:59;;;;;;;14.03;10.73;;;;;;;;;;5027983;28;20725;-67
2023/04/13 08:36:26;;;;;;;12.90;9.90;;;;;;;;;;5027186;28;20199;-67
2023/04/13 08:39:01;;;;;;;12.40;9.57;;;;;;;;;;4995711;28;20345;-67
2023/04/13 08:41:29;;;;;;;12.67;9.60;;;;;;;;;;5010248;28;20532;-67
2023/04/13 08:43:56;;;;;;;13.90;10.40;;;;;;;;;;5010216;28;20191;-67
2023/04/13 08:46:26;;;;;;;12.83;10.43;;;;;;;;;;5010185;28;20204;-67
2023/04/13 08:48:55;;;;;;;15.30;10.17;;;;;;;;;;5010108;28;20195;-67
2023/04/13 08:51:32;;;;;;;14.20;9.70;;;;;;;;;;5010430;28;20210;-67
2023/04/13 08:53:59;;;;;;;11.17;7.60;;;;;;;;;;5028315;28;20215;-67
2023/04/13 08:56:31;;;;;;;12.10;9.50;;;;;;;;;;5010282;28;20319;-67
2023/04/13 08:59:12;;;;;;;12.70;9.83;;;;;;;;;;5010199;28;20209;-67
2023/04/13 09:01:40;;;;;;;12.37;10.10;;;;;;;;;;5028231;28;20191;-67
2023/04/13 09:04:09;;;;;;;14.20;10.13;;;;;;;;;;5010513;28;20613;-68
2023/04/13 09:06:42;;;;;;;13.23;9.80;;;;;;;;;;5027933;28;20200;-68
2023/04/13 09:09:13;;;;;;;13.10;10.67;;;;;;;;;;5010250;28;20199;-67
2023/04/13 09:11:41;;;;;;;12.13;10.47;;;;;;;;;;5010481;28;20222;-68
2023/04/13 09:14:11;;;;;;;15.40;11.17;;;;;;;;;;5027800;28;20270;-67
2023/04/13 09:16:41;;;;;;;12.17;10.50;;;;;;;;;;5010048;28;20188;-67
2023/04/13 09:19:30;;;;;;;12.67;10.03;;;;;;;;;;5009924;28;20195;-67
2023/04/13 09:21:57;;;;;;;13.20;10.50;;;;;;;;;;5027762;28;20199;-68
2023/04/13 09:24:24;;;;;;;15.30;10.60;;;;;;;;;;5027988;28;20194;-67
2023/04/13 09:26:51;;;;;;;15.10;10.57;;;;;;;;;;5010069;28;21025;-67
2023/04/13 09:29:19;;;;;;;12.63;10.33;;;;;;;;;;5027500;28;20188;-68
2023/04/13 09:31:47;;;;;;;12.73;10.33;;;;;;;;;;4993872;28;20237;-68
2023/04/13 09:34:24;;;;;;;13.00;10.70;;;;;;;;;;5027914;28;20195;-68
2023/04/13 09:36:53;;;;;;;14.73;10.93;;;;;;;;;;5010324;28;20242;-68
2023/04/13 09:39:24;;;;;;;11.77;10.43;;;;;;;;;;5010845;28;20349;-68
2023/04/13 09:41:52;;;;;;;12.03;9.63;;;;;;;;;;5010312;28;20253;-68
2023/04/13 09:44:19;;;;;;;12.43;9.97;;;;;;;;;;5027605;28;20172;-68
2023/04/13 09:46:59;;;;;;;11.93;10.00;;;;;;;;;;5027322;28;20184;-68
2023/04/13 09:49:28;;;;;;;12.90;10.43;;;;;;;;;;5026692;28;20261;-67
2023/04/13 09:51:55;;;;;;;11.73;9.83;;;;;;;;;;5024617;28;20192;-67
2023/04/13 09:54:21;;;;;;;14.33;10.73;;;;;;;;;;5010239;28;20211;-68
2023/04/13 09:56:55;;;;;;;13.40;10.70;;;;;;;;;;5009929;28;20184;-67
2023/04/13 09:59:22;;;;;;;12.33;9.67;;;;;;;;;;5027447;28;20197;-67
2023/04/13 10:01:49;;;;;;;10.80;8.40;;;;;;;;;;5013060;28;20232;-68
2023/04/13 10:04:16;;;;;;;11.23;7.93;;;;;;;;;;5014057;28;20194;-67
2023/04/13 10:06:44;;;;;;;9.40;8.30;;;;;;;;;;5029708;28;20184;-67
2023/04/13 10:09:12;;;;;;;10.70;7.70;;;;;;;;;;5031293;28;20211;-67
2023/04/13 10:11:45;;;;;;;9.57;7.90;;;;;;;;;;5031055;28;20183;-67
2023/04/13 10:14:16;;;;;;;10.17;7.93;;;;;;;;;;5013068;28;20215;-67
2023/04/13 10:17:04;;;;;;;9.90;7.83;;;;;;;;;;5030688;28;20203;-68
2023/04/13 10:19:36;;;;;;;8.67;6.77;;;;;;;;;;5031119;28;20383;-68
2023/04/13 10:22:02;;;;;;;10.83;7.83;;;;;;;;;;4996934;28;20191;-67
2023/04/13 10:24:29;;;;;;;8.13;7.00;;;;;;;;;;5013052;28;20180;-68
2023/04/13 10:26:59;;;;;;;11.10;8.77;;;;;;;;;;5031033;28;20615;-67
2023/04/13 10:29:29;;;;;;;10.60;7.63;;;;;;;;;;5030551;28;20219;-69
2023/04/13 10:32:01;;;;;;;9.03;7.60;;;;;;;;;;5030284;28;20736;-68
2023/04/13 10:34:30;;;;;;;9.50;7.67;;;;;;;;;;5030143;28;20219;-68
2023/04/13 10:37:05;;;;;;;9.50;7.33;;;;;;;;;;5013154;28;20179;-68
2023/04/13 10:39:33;;;;;;;9.50;7.30;;;;;;;;;;5029820;28;20223;-69
2023/04/13 10:42:00;;;;;;;9.57;7.17;;;;;;;;;;5030779;28;20722;-68
2023/04/13 10:44:27;;;;;;;8.30;6.30;;;;;;;;;;5030191;28;20686;-68
2023/04/13 10:46:54;;;;;;;9.37;7.00;;;;;;;;;;5030315;28;20194;-68
2023/04/13 10:49:29;;;;;;;7.73;6.60;;;;;;;;;;5030600;28;20198;-68
2023/04/13 10:51:56;;;;;;;7.93;6.77;;;;;;;;;;5012461;28;20191;-68
2023/04/13 10:54:22;;;;;;;7.87;5.50;;;;;;;;;;5030198;28;20211;-69
2023/04/13 10:56:56;;;;;;;6.30;5.50;;;;;;;;;;5012743;28;20188;-68
2023/04/13 10:59:23;;;;;;;8.13;6.00;;;;;;;;;;5012606;28;20191;-68
2023/04/13 11:01:49;;;;;;;8.90;6.17;;;;;;;;;;5009610;28;20194;-68
2023/04/13 11:04:17;;;;;;;8.80;6.07;;;;;;;;;;5030211;28;20693;-68
2023/04/13 11:06:47;;;;;;;8.90;6.07;;;;;;;;;;5029996;28;20194;-69
2023/04/13 11:09:14;;;;;;;7.63;5.73;;;;;;;;;;5012661;28;20184;-68
2023/04/13 11:11:42;;;;;;;7.23;5.30;;;;;;;;;;5028705;28;20188;-69
2023/04/13 11:14:19;;;;;;;7.43;5.10;;;;;;;;;;5029999;28;20534;-68
2023/04/13 11:16:46;;;;;;;7.73;5.67;;;;;;;;;;5030084;28;20186;-69
2023/04/13 11:19:12;;;;;;;7.90;5.53;;;;;;;;;;5012413;28;20191;-68
2023/04/13 11:21:39;;;;;;;7.27;4.93;;;;;;;;;;5012243;28;20187;-69
2023/04/13 11:24:06;;;;;;;7.73;5.10;;;;;;;;;;5012951;28;20206;-68
2023/04/13 11:26:33;;;;;;;8.53;5.33;;;;;;;;;;4995873;28;20195;-69
2023/04/13 11:29:01;;;;;;;8.67;5.30;;;;;;;;;;5029866;28;20180;-68
2023/04/13 11:31:36;;;;;;;6.37;5.70;;;;;;;;;;5012394;28;20191;-68
2023/04/13 11:34:04;;;;;;;9.67;6.50;;;;;;;;;;5029726;28;20203;-68
2023/04/13 11:36:31;;;;;;;7.73;5.60;;;;;;;;;;5029432;28;20183;-69
2023/04/13 11:39:00;;;;;;;6.37;5.10;;;;;;;;;;5012635;28;20191;-69
2023/04/13 11:41:31;;;;;;;8.67;5.87;;;;;;;;;;5029407;28;20183;-69
2023/04/13 11:44:01;;;;;;;7.13;5.70;;;;;;;;;;5029471;28;20168;-69
2023/04/13 11:46:28;;;;;;;7.03;5.83;;;;;;;;;;5012181;28;20199;-69
2023/04/13 11:48:55;;;;;;;9.20;6.07;;;;;;;;;;5029260;28;20195;-69
2023/04/13 11:51:21;;;;;;;6.43;5.33;;;;;;;;;;5011843;28;20206;-69
2023/04/13 11:53:50;;;;;;;7.23;5.97;;;;;;;;;;5011667;28;20210;-69
2023/04/13 11:56:17;;;;;;;8.83;5.83;;;;;;;;;;5011943;28;20191;-69
2023/04/13 11:58:43;;;;;;;6.87;5.40;;;;;;;;;;5029324;28;20183;-69
2023/04/13 12:01:12;;;;;;;8.07;6.00;;;;;;;;;;5028738;28;20295;-69
2023/04/13 12:03:44;;;;;;;7.73;6.20;;;;;;;;;;5011421;28;20245;-69
2023/04/13 12:06:32;;;;;;;7.37;5.70;;;;;;;;;;5028740;28;20195;-68
2023/04/13 12:09:00;;;;;;;10.23;5.93;;;;;;;;;;5012138;28;20191;-68
2023/04/13 12:11:40;;;;;;;7.67;5.60;;;;;;;;;;4996258;28;20666;-68
2023/04/13 12:14:19;;;;;;;16.80;13.43;;;;;;;;;;5012167;28;20214;-68
2023/04/13 12:17:09;;;;;;;19.10;14.10;;;;;;;;;;5014080;28;20188;-68
2023/04/13 12:19:56;;;;;;;19.53;14.67;;;;;;;;;;5028996;28;20210;-68
2023/04/13 12:22:23;;;;;;;17.83;14.40;;;;;;;;;;5028617;28;20215;-68
2023/04/13 12:24:50;;;;;;;15.97;13.47;;;;;;;;;;5027964;28;20217;-68
2023/04/13 12:27:18;;;;;;;34.40;16.10;;;;;;;;;;5028758;28;20198;-68
2023/04/13 12:29:45;;;;;;;17.87;14.63;;;;;;;;;;5028400;28;20196;-69
2023/04/13 12:32:14;;;;;;;19.30;13.73;;;;;;;;;;5010666;28;20233;-69
2023/04/13 12:34:41;;;;;;;19.00;16.20;;;;;;;;;;5010977;28;20242;-69
2023/04/13 12:37:10;;;;;;;18.70;14.47;;;;;;;;;;5028077;28;20582;-69
2023/04/13 12:39:36;;;;;;;20.83;14.40;;;;;;;;;;5010473;28;20230;-68
2023/04/13 12:42:03;;;;;;;17.90;14.33;;;;;;;;;;5028375;28;20227;-68
2023/04/13 12:44:30;;;;;;;18.40;13.97;;;;;;;;;;5027981;28;20187;-68
2023/04/13 12:47:00;;;;;;;16.97;13.80;;;;;;;;;;5028229;28;20797;-67
2023/04/13 12:49:27;;;;;;;17.60;14.37;;;;;;;;;;5010642;28;20346;-67
2023/04/13 12:51:53;;;;;;;19.60;14.13;;;;;;;;;;5028041;28;20536;-67
2023/04/13 12:54:20;;;;;;;25.53;16.63;;;;;;;;;;5010901;28;20226;-67
2023/04/13 12:56:47;;;;;;;18.47;15.07;;;;;;;;;;5028204;28;20199;-68
2023/04/13 12:59:13;;;;;;;20.10;15.23;;;;;;;;;;5028169;28;20191;-68
2023/04/13 13:01:40;;;;;;;20.23;13.53;;;;;;;;;;5028100;28;20188;-67
2023/04/13 13:04:07;;;;;;;16.93;13.33;;;;;;;;;;5028154;28;20919;-69
2023/04/13 13:06:34;;;;;;;16.33;13.47;;;;;;;;;;5010520;28;20194;-68
2023/04/13 13:09:00;;;;;;;18.27;13.73;;;;;;;;;;5028416;28;20184;-68
2023/04/13 13:11:27;;;;;;;17.27;13.70;;;;;;;;;;5025388;28;20187;-69
2023/04/13 13:13:54;;;;;;;17.33;14.70;;;;;;;;;;5013010;28;20543;-69
2023/04/13 13:16:21;;;;;;;23.23;15.27;;;;;;;;;;5030912;28;20287;-69
2023/04/13 13:18:48;;;;;;;18.40;14.67;;;;;;;;;;5030404;28;20706;-69
2023/04/13 13:21:28;;;;;;;19.67;13.73;;;;;;;;;;5014581;28;20191;-69
2023/04/13 13:23:55;;;;;;;17.63;13.80;;;;;;;;;;5030410;28;20206;-69
2023/04/13 13:26:21;;;;;;;16.90;13.30;;;;;;;;;;5030332;28;20195;-69
2023/04/13 13:28:54;;;;;;;15.07;12.50;;;;;;;;;;5030906;28;20238;-69
2023/04/13 13:31:21;;;;;;;19.27;14.13;;;;;;;;;;5030201;28;20635;-68
2023/04/13 13:33:47;;;;;;;16.50;13.33;;;;;;;;;;5013174;28;20203;-69
2023/04/13 13:36:15;;;;;;;17.07;13.57;;;;;;;;;;5032988;28;20202;-68
2023/04/13 13:38:41;;;;;;;19.67;14.37;;;;;;;;;;5016458;28;20187;-69
2023/04/13 13:41:24;;;;;;;16.83;14.23;;;;;;;;;;5018998;28;20456;-70
2023/04/13 13:43:51;;;;;;;18.47;15.37;;;;;;;;;;5034771;28;20187;-70
2023/04/13 13:46:18;;;;;;;17.90;14.63;;;;;;;;;;5017067;28;20187;-68
2023/04/13 13:48:46;;;;;;;18.80;14.00;;;;;;;;;;5016686;28;20198;-68
2023/04/13 13:51:31;;;;;;;16.83;13.73;;;;;;;;;;5034740;28;20210;-68
2023/04/13 13:53:59;;;;;;;17.60;13.43;;;;;;;;;;5015939;28;20269;-69
2023/04/13 13:56:26;;;;;;;21.30;14.27;;;;;;;;;;5033862;28;20218;-68
2023/04/13 13:58:53;;;;;;;18.33;14.40;;;;;;;;;;5015760;28;20286;-69
2023/04/13 14:01:20;;;;;;;15.60;12.67;;;;;;;;;;5016176;28;20203;-69
2023/04/13 14:03:47;;;;;;;15.30;12.23;;;;;;;;;;5016057;28;20199;-69
2023/04/13 14:06:14;;;;;;;21.30;13.00;;;;;;;;;;5034326;28;20250;-70
2023/04/13 14:08:41;;;;;;;16.20;12.07;;;;;;;;;;5033778;28;20226;-69
2023/04/13 14:11:08;;;;;;;16.40;12.57;;;;;;;;;;5033530;28;20237;-69
2023/04/13 14:13:36;;;;;;;15.93;13.20;;;;;;;;;;5015852;28;20226;-69
2023/04/13 14:16:03;;;;;;;18.10;13.20;;;;;;;;;;5015714;28;20199;-68
2023/04/13 14:18:30;;;;;;;15.70;13.37;;;;;;;;;;5033963;28;20203;-69
2023/04/13 14:20:56;;;;;;;16.20;12.83;;;;;;;;;;5033227;28;20736;-68
2023/04/13 14:23:24;;;;;;;18.50;14.07;;;;;;;;;;5016771;28;20284;-69
2023/04/13 14:25:51;;;;;;;22.10;17.87;;;;;;;;;;5033567;28;20191;-69
2023/04/13 14:28:18;;;;;;;31.33;20.17;;;;;;;;;;5033264;28;20175;-68
2023/04/13 14:30:44;;;;;;;28.83;18.43;;;;;;;;;;5033900;28;20264;-68
2023/04/13 14:33:15;;;;;;;21.13;16.70;;;;;;;;;;5016091;28;20563;-69
2023/04/13 14:35:42;;;;;;;32.03;20.43;;;;;;;;;;5033677;28;20225;-69
2023/04/13 14:38:10;;;;;;;23.90;16.13;;;;;;;;;;5033490;28;20277;-69
2023/04/13 14:40:37;;;;;;;20.93;14.43;;;;;;;;;;5033494;28;20710;-69
2023/04/13 14:43:03;;;;;;;20.10;14.53;;;;;;;;;;5015619;28;20195;-69
2023/04/13 14:45:31;;;;;;;24.47;16.23;;;;;;;;;;5031778;28;20191;-69
2023/04/13 14:47:58;;;;;;;15.53;12.77;;;;;;;;;;5014451;28;20190;-69
2023/04/13 14:50:24;;;;;;;18.70;13.60;;;;;;;;;;5015275;28;20199;-69
2023/04/13 14:52:52;;;;;;;19.00;13.80;;;;;;;;;;5015324;28;20279;-69
2023/04/13 14:55:19;;;;;;;16.63;12.93;;;;;;;;;;5015258;28;20257;-69
2023/04/13 14:57:45;;;;;;;15.93;13.13;;;;;;;;;;5033563;28;20226;-69
2023/04/13 15:00:37;;;;;;;16.43;12.67;;;;;;;;;;4998654;28;20192;-69
2023/04/13 15:03:06;;;;;;;16.63;11.50;;;;;;;;;;5032488;28;20655;-69
2023/04/13 15:05:39;;;;;;;13.17;11.20;;;;;;;;;;5015356;28;20191;-69
2023/04/13 15:08:07;;;;;;;17.50;11.67;;;;;;;;;;5032940;28;20547;-69
2023/04/13 15:10:34;;;;;;;17.70;12.23;;;;;;;;;;5015670;28;20647;-70
2023/04/13 15:13:02;;;;;;;12.90;10.20;;;;;;;;;;5032820;28;20278;-70